KXNA/XNA METAR and TAF weather

Enter ICAO airport designator
Station Type Date Time Source
KXNA METAR 2019/02/17 07:40 UTC NOAA

KXNA 170740Z AUTO 22004KT 2 1/2SM BR OVC003 03/01 A2972 RMK AO2 T00330011


Station Type Date Time Source
KXNA Decoded METAR 2019/02/17 07:40 UTC NOAA

NORTHWEST ARKANSAS REGIONAL, AR, United States (KXNA) 36-17N 94-18W
Feb 17, 2019 - 02:40 AM EST / 2019.02.17 0740 UTC
Wind: from the SW (220 degrees) at 5 MPH (4 KT):0
Visibility: 2 1/2 mile(s):0
Sky conditions: overcast
Weather: mist
Temperature: 37.9 F (3.3 C)
Dew Point: 34.0 F (1.1 C)
Relative Humidity: 85%
Pressure (altimeter): 29.72 in. Hg (1006 hPa)
ob: KXNA 170740Z AUTO 22004KT 2 1/2SM BR OVC003 03/01 A2972 RMK AO2 T00330011
cycle: 7

Station Type Date Time Source
KXNA TAF 2019/02/17 06:42 UTC NOAA

TAF KXNA 170539Z 1706/1806 18004KT 6SM -DZ BR OVC008
TEMPO 1706/1710 3SM -DZ BR OVC003
FM171000 24006KT 3SM BR OVC003
FM171500 27010KT P6SM OVC015
FM172000 31014G20KT P6SM SCT025


Example: see airport list